Meteo Giornale » Osservazioni meteo Stati Uniti (USA) » Idaho Falls
ore: 21:53 - Osservazioni Meteo Idaho Falls
Lat. 43° 31' N Lon. 112° 3' W Alt. 1445 metri s.l.m.
23 °C
Poco Nuvoloso
Temp. 24 Ore
4 °C
27 °C
Sud-Est
25.9 Km/h
Dew point 5 °C
Umidità 31 %
Visibilità 10 Km
Il sole sorge alle ore 06:51
Il sole tramonta alle ore 20:05
| Data e Ora | Cielo e Fenomeni | T °C | DP °C | Um. % | Pres. hPa | Vis. km | Vento km/h | |
|---|---|---|---|---|---|---|---|---|
| Oggi h: 21:53 | Poco Nuvoloso | 23 | 5 | 31 | 1016 | 10 | SE 25.9 | |
| Oggi h: 20:53 | Poco Nuvoloso | 24 | 6 | 31 | 1016 | 10 | E/SE 9.3 | |
| Oggi h: 19:53 | Sereno | 23 | 7 | 35 | 1015 | 10 | E/NE 9.3 | |
| Oggi h: 18:53 | Nuvoloso | 26 | 5 | 25 | 1016 | 10 | N 5.5 | |
| Oggi h: 17:53 | Sereno | 27 | 3 | 21 | 1016 | 10 | S/SO 7.4 | |
| Oggi h: 16:53 | Sereno | 27 | 1 | 18 | 1016 | 10 | S 9.3 | |
| Oggi h: 15:53 | Sereno | 27 | 3 | 21 | 1017 | 10 | O/NO 11.1 | |
| Oggi h: 14:53 | Sereno | 26 | -1 | 16 | 1018 | 10 | S 9.3 | |
| Oggi h: 13:53 | Sereno | 24 | -1 | 19 | 1019 | 10 | N/NE 7.4 | |
| Oggi h: 12:53 | Sereno | 23 | -3 | 17 | 1020 | 10 | N 5.5 | |
| Oggi h: 11:53 | Sereno | 20 | -4 | 19 | 1020 | 10 | N 9.3 | |
| Oggi h: 10:53 | Sereno | 18 | -2 | 25 | 1021 | 10 | N 5.5 | |
| Oggi h: 09:53 | Sereno | 14 | -3 | 30 | 1021 | 10 | N 5.5 | |
| Oggi h: 08:53 | Sereno | 11 | -1 | 43 | 1021 | 10 | N 0 | |
| Oggi h: 07:53 | Sereno | 8 | 1 | 61 | 1021 | 10 | N 5.5 | |
| Oggi h: 06:53 | Sereno | 4 | -1 | 69 | 1020 | 10 | N 0 | |
| Oggi h: 05:53 | Sereno | 4 | -1 | 69 | 1020 | 10 | O 7.4 | |
| Oggi h: 04:53 | Sereno | 5 | -1 | 65 | 1020 | 10 | N 0 | |
| Oggi h: 03:53 | Sereno | 9 | -3 | 42 | 1020 | 10 | S/SO 9.3 | |
| Oggi h: 02:53 | Sereno | 8 | -1 | 52 | 1019 | 10 | SO 7.4 | |
| Oggi h: 01:53 | Sereno | 12 | -5 | 30 | 1019 | 10 | SO 16.7 | |
| Oggi h: 00:53 | Sereno | 14 | -6 | 24 | 1019 | 10 | S 14.8 | |
| Ieri h: 23:53 | Sereno | 16 | -6 | 21 | 1019 | 10 | S 20.3 | |
| Ieri h: 22:53 | Sereno | 16 | -5 | 23 | 1018 | 10 | S 16.7 | |



